Terminal Aerodrome Forecast
Issued by NWS

Home | Current Version | Previous Version | Text Only | Print | Product List | Glossary On
Versions: 1 2 3 4 5 6 7 8 9 10 11 12 13 14
000
FTUS41 KBTV 192320
TAFMSS
TAF
KMSS 192320Z 2000/2024 06016KT P6SM SCT250
     FM200700 07009KT P6SM OVC120
     FM201000 10013KT P6SM VCSH BKN060 OVC100
     FM201300 11015G25KT 4SM -RA BR BKN020 OVC040
     FM202100 13013G22KT P6SM VCSH SCT020 OVC040=

USA.gov is the U.S. government's official web portal to all federal, state and local government web resources and services.